Saltillo, Pennsylvania
Current Conditions -  °F | °C
As of 8:53 PM on Saturday 22 Nov 2014 (Local Time) from KAOO Reporting Station
Few Clouds Few Clouds  
Wind Chill: 38°   Ceiling: Unl
Heat Index: 42°   Visibility: 10mi
Dew Point: 27°   Wind: 6mph
Humidity: 55%   Direction: 220°SW
Pressure: 30.14"   Gusts: NA
Location:  40.21°N, 78.01°W
Report Text: KAOO 230153Z AUTO 22005KT 10SM FEW065 06/M03 A3014 RMK AO2 SLP221 T00561028
Loading
Personal Weather Stations






























Interactive Weather Map New forecast layout! Learn more

10-Day Weather Forecast

Advertisements
Track Severe Weather on mobile